Time;durP1;ratioP1;P1;durP2;ratioP2;P2;SDS_P1;SDS_P2;PMS_P1;PMS_P2;Temp;Humidity;BMP_temperature;BMP_pressure;BME280_temperature;BME280_humidity;BME280_pressure;Samples;Min_cycle;Max_cycle;Signal;HPM_P1;HPM_P2
2023/05/13 00:00:30;;;;;;;3.83;3.57;;;;;;;11.90;74.02;95338.44;4995033;28;20549;-85
2023/05/13 00:02:57;;;;;;;4.23;3.40;;;;;;;11.67;73.97;95340.31;5013003;28;20862;-84
2023/05/13 00:05:24;;;;;;;3.40;2.97;;;;;;;11.38;75.10;95326.91;5012735;28;20487;-84
2023/05/13 00:07:50;;;;;;;3.70;3.40;;;;;;;11.20;76.32;95323.13;5013034;28;20451;-85
2023/05/13 00:10:19;;;;;;;4.00;3.60;;;;;;;11.04;75.02;95320.91;5012945;28;20459;-85
2023/05/13 00:12:47;;;;;;;3.77;3.47;;;;;;;11.09;75.87;95323.16;5013298;28;20447;-86
2023/05/13 00:15:14;;;;;;;4.17;3.17;;;;;;;11.12;74.79;95318.50;5012979;28;20428;-84
2023/05/13 00:17:41;;;;;;;3.27;3.00;;;;;;;11.10;74.39;95320.41;5013089;28;20436;-84
2023/05/13 00:20:08;;;;;;;4.43;2.83;;;;;;;11.00;72.99;95329.16;5012796;28;20865;-84
2023/05/13 00:22:35;;;;;;;3.93;2.80;;;;;;;11.00;72.30;95316.84;5013105;28;20934;-85
2023/05/13 00:25:02;;;;;;;3.43;3.13;;;;;;;10.99;74.10;95307.31;5013214;28;20483;-86
2023/05/13 00:27:31;;;;;;;4.43;3.87;;;;;;;10.95;74.21;95311.13;5012464;28;20930;-85
2023/05/13 00:29:59;;;;;;;4.20;3.07;;;;;;;10.92;75.09;95305.28;5011875;28;20443;-85
2023/05/13 00:32:26;;;;;;;4.10;3.30;;;;;;;11.01;75.54;95299.31;5012727;28;20550;-84
2023/05/13 00:34:53;;;;;;;2.70;2.50;;;;;;;11.00;76.39;95295.84;4994044;28;20489;-84
2023/05/13 00:37:20;;;;;;;3.23;2.93;;;;;;;10.95;76.51;95303.25;5013292;28;20448;-85
2023/05/13 00:39:47;;;;;;;4.43;3.20;;;;;;;10.93;77.48;95297.28;5014315;28;20455;-85
2023/05/13 00:42:14;;;;;;;3.33;3.03;;;;;;;10.94;76.05;95298.09;5012981;28;20896;-86
2023/05/13 00:44:43;;;;;;;3.73;3.37;;;;;;;10.86;76.55;95291.69;5012276;28;21041;-87
2023/05/13 00:47:12;;;;;;;5.20;3.30;;;;;;;10.80;74.31;95304.47;5012644;28;20451;-86
2023/05/13 00:49:39;;;;;;;6.40;2.80;;;;;;;10.90;75.50;95310.66;5012517;28;20458;-87
2023/05/13 00:52:06;;;;;;;3.20;3.00;;;;;;;10.98;76.46;95295.13;5012712;28;20443;-87
2023/05/13 00:54:33;;;;;;;3.40;3.10;;;;;;;10.86;75.22;95317.94;5012505;28;20943;-88
2023/05/13 00:57:00;;;;;;;2.80;2.60;;;;;;;10.95;74.34;95320.78;5012686;28;20447;-87
2023/05/13 00:59:28;;;;;;;3.10;2.80;;;;;;;11.07;75.32;95327.69;5018434;28;21039;-86
2023/05/13 01:02:00;;;;;;;3.83;2.60;;;;;;;11.08;74.45;95332.84;4983877;28;20431;-86
2023/05/13 01:04:37;;;;;;;3.33;3.00;;;;;;;11.08;73.02;95313.63;5018648;28;20490;-87
2023/05/13 01:07:12;;;;;;;3.70;3.20;;;;;;;11.20;75.13;95310.00;5019327;28;20472;-86
2023/05/13 01:09:54;;;;;;;4.27;3.70;;;;;;;11.26;74.66;95311.28;5019164;28;20478;-87
2023/05/13 01:12:26;;;;;;;3.17;2.90;;;;;;;11.38;74.62;95310.31;5018445;28;20446;-87
2023/05/13 01:15:01;;;;;;;3.20;2.67;;;;;;;11.45;73.28;95311.47;5018689;28;20443;-86
2023/05/13 01:17:33;;;;;;;3.20;2.90;;;;;;;11.48;70.47;95314.69;5019225;28;20450;-86
2023/05/13 01:20:03;;;;;;;4.70;2.93;;;;;;;11.46;69.96;95310.50;5018695;28;20443;-86
2023/05/13 01:22:32;;;;;;;5.53;3.67;;;;;;;11.36;70.21;95299.94;5018754;28;20447;-86
2023/05/13 01:24:58;;;;;;;5.80;5.30;;;;;;;11.34;69.27;95308.91;5018519;28;20577;-87
2023/05/13 01:27:25;;;;;;;3.33;3.07;;;;;;;11.41;69.46;95315.31;5018662;28;20458;-86
2023/05/13 01:29:54;;;;;;;3.97;2.57;;;;;;;11.48;69.76;95332.25;5018943;28;20446;-88
2023/05/13 01:32:21;;;;;;;3.83;2.80;;;;;;;11.56;68.58;95332.44;5018714;28;20943;-87
2023/05/13 01:34:50;;;;;;;3.27;2.97;;;;;;;11.53;66.16;95340.56;5018728;28;20529;-87
2023/05/13 01:37:16;;;;;;;5.03;3.13;;;;;;;11.56;66.67;95334.25;5018328;28;20871;-87
2023/05/13 01:39:44;;;;;;;4.63;3.30;;;;;;;11.69;68.28;95333.13;5018495;28;20435;-87
2023/05/13 01:42:11;;;;;;;3.60;2.63;;;;;;;11.79;68.75;95326.16;5018708;28;20452;-84
2023/05/13 01:44:38;;;;;;;4.77;3.27;;;;;;;11.89;68.92;95323.63;5018530;28;20515;-84
2023/05/13 01:47:05;;;;;;;3.50;3.07;;;;;;;11.91;68.28;95332.22;5018686;28;20935;-84
2023/05/13 01:49:32;;;;;;;4.33;3.20;;;;;;;11.87;68.27;95329.97;4999819;28;20856;-85
2023/05/13 01:51:59;;;;;;;3.10;2.80;;;;;;;11.86;69.40;95333.56;5018272;28;20500;-84
2023/05/13 01:54:25;;;;;;;3.20;2.90;;;;;;;11.85;69.89;95331.88;5018694;28;20445;-84
2023/05/13 01:56:55;;;;;;;3.30;2.80;;;;;;;11.74;67.26;95333.56;5000007;28;20957;-84
2023/05/13 01:59:21;;;;;;;2.57;2.37;;;;;;;11.69;68.46;95334.91;5018342;28;20483;-84
2023/05/13 02:01:48;;;;;;;4.13;2.70;;;;;;;11.59;68.55;95334.84;5018008;28;20509;-84
2023/05/13 02:04:24;;;;;;;5.00;3.30;;;;;;;11.58;70.46;95334.97;5018285;28;20481;-84
2023/05/13 02:06:51;;;;;;;3.63;3.30;;;;;;;11.51;69.14;95334.63;5018451;28;20451;-85
2023/05/13 02:09:18;;;;;;;4.07;2.50;;;;;;;11.45;69.40;95329.88;5016135;28;20451;-84
2023/05/13 02:11:45;;;;;;;3.10;2.90;;;;;;;11.47;71.36;95327.94;5015135;28;20458;-84
2023/05/13 02:14:13;;;;;;;3.33;3.03;;;;;;;11.48;69.42;95337.50;5014922;28;20458;-84
2023/05/13 02:16:40;;;;;;;3.37;2.80;;;;;;;11.33;69.31;95336.97;5014838;28;20498;-84
2023/05/13 02:19:07;;;;;;;3.73;3.23;;;;;;;11.33;69.22;95339.59;5015684;28;20455;-85
2023/05/13 02:21:34;;;;;;;3.27;3.00;;;;;;;11.40;70.30;95350.44;5016271;28;20458;-84
2023/05/13 02:24:01;;;;;;;7.57;2.90;;;;;;;11.42;70.48;95341.47;5017034;28;20902;-84
2023/05/13 02:26:28;;;;;;;2.73;2.53;;;;;;;11.38;69.33;95342.66;5015396;28;20519;-84
2023/05/13 02:28:55;;;;;;;3.90;3.60;;;;;;;11.22;69.80;95336.13;5014978;28;20519;-86
2023/05/13 02:31:23;;;;;;;2.93;2.73;;;;;;;11.24;70.48;95339.47;5015344;28;20791;-84
2023/05/13 02:33:50;;;;;;;8.70;3.97;;;;;;;11.14;70.95;95337.59;4996152;28;20933;-85
2023/05/13 02:36:16;;;;;;;3.70;3.17;;;;;;;11.24;71.54;95335.06;5014565;28;20443;-84
2023/05/13 02:38:43;;;;;;;3.80;3.43;;;;;;;11.17;72.04;95345.22;5014830;28;20462;-84
2023/05/13 02:41:10;;;;;;;4.67;2.80;;;;;;;11.17;74.15;95339.97;5014435;28;20451;-85
2023/05/13 02:43:37;;;;;;;3.63;3.10;;;;;;;11.20;73.68;95333.63;5014604;28;20446;-84
2023/05/13 02:46:03;;;;;;;4.47;3.47;;;;;;;11.18;72.97;95338.19;5018367;28;20493;-83
2023/05/13 02:48:31;;;;;;;3.57;3.10;;;;;;;11.23;72.88;95343.06;5020123;28;20476;-82
2023/05/13 02:50:58;;;;;;;3.50;3.20;;;;;;;11.18;72.56;95338.19;5020425;28;20885;-82
2023/05/13 02:53:25;;;;;;;3.77;3.30;;;;;;;11.17;72.01;95336.50;4984088;28;20501;-83
2023/05/13 02:55:53;;;;;;;5.77;3.27;;;;;;;11.10;71.66;95336.16;5020546;28;20451;-82
2023/05/13 02:58:19;;;;;;;3.77;3.43;;;;;;;11.11;73.01;95339.63;5019937;28;20455;-83
2023/05/13 03:00:46;;;;;;;7.43;3.57;;;;;;;11.11;71.16;95335.22;5020324;28;20965;-82
2023/05/13 03:03:13;;;;;;;4.53;3.70;;;;;;;11.15;73.13;95343.69;5021558;28;20486;-83
2023/05/13 03:05:41;;;;;;;3.13;2.83;;;;;;;11.09;72.00;95350.25;5001979;28;20478;-83
2023/05/13 03:08:08;;;;;;;5.00;3.30;;;;;;;11.11;73.00;95353.59;5020694;28;20542;-83
2023/05/13 03:10:35;;;;;;;6.37;3.30;;;;;;;11.14;73.50;95358.59;5019960;28;20448;-83
2023/05/13 03:13:01;;;;;;;3.80;3.50;;;;;;;11.16;73.63;95367.19;5018692;28;20509;-83
2023/05/13 03:15:28;;;;;;;3.57;3.27;;;;;;;11.26;73.63;95367.28;5020350;28;20432;-83
2023/05/13 03:17:56;;;;;;;5.30;3.57;;;;;;;11.24;73.36;95368.38;5018751;28;20455;-83
2023/05/13 03:20:23;;;;;;;6.70;3.40;;;;;;;11.21;73.37;95366.00;5019510;28;20489;-83
2023/05/13 03:22:51;;;;;;;5.87;3.33;;;;;;;11.22;74.15;95371.13;5019277;28;20506;-83
2023/05/13 03:25:18;;;;;;;4.70;3.87;;;;;;;11.28;73.49;95361.94;5000664;28;20479;-83
2023/05/13 03:27:45;;;;;;;4.70;3.60;;;;;;;11.36;72.60;95367.41;5019316;28;20470;-83
2023/05/13 03:30:12;;;;;;;3.87;2.90;;;;;;;11.40;73.25;95364.41;5020824;28;20452;-83
2023/05/13 03:32:39;;;;;;;6.33;3.70;;;;;;;11.42;72.99;95369.53;5022089;28;20451;-84
2023/05/13 03:35:06;;;;;;;4.30;3.70;;;;;;;11.52;73.03;95367.00;5023366;28;20457;-84
2023/05/13 03:37:33;;;;;;;8.30;3.63;;;;;;;11.46;71.71;95370.94;5020538;28;20470;-84
2023/05/13 03:40:02;;;;;;;5.50;4.97;;;;;;;11.50;73.49;95372.38;5021437;28;20502;-83
2023/05/13 03:42:29;;;;;;;3.83;3.40;;;;;;;11.53;72.20;95380.00;5003424;28;20450;-83
2023/05/13 03:44:56;;;;;;;6.30;3.60;;;;;;;11.59;72.81;95395.31;5021395;28;20561;-84
2023/05/13 03:47:23;;;;;;;3.77;3.47;;;;;;;11.63;73.16;95393.25;5020026;28;20479;-84
2023/05/13 03:49:50;;;;;;;4.97;3.63;;;;;;;11.71;72.90;95390.84;5015042;28;20447;-85
2023/05/13 03:52:17;;;;;;;6.07;3.93;;;;;;;11.76;73.12;95384.22;5015054;28;21010;-86
2023/05/13 03:54:44;;;;;;;4.93;4.47;;;;;;;11.81;71.59;95388.31;5014771;28;20505;-86
2023/05/13 03:57:12;;;;;;;4.87;4.03;;;;;;;11.76;72.06;95386.03;5015322;28;20474;-86
2023/05/13 03:59:39;;;;;;;4.80;4.40;;;;;;;11.71;72.64;95391.66;5015226;28;20475;-85
2023/05/13 04:02:06;;;;;;;4.93;3.90;;;;;;;11.75;73.52;95394.88;5014439;28;20443;-86
2023/05/13 04:04:32;;;;;;;3.97;3.67;;;;;;;11.83;74.05;95403.00;5014345;28;20523;-86
2023/05/13 04:06:59;;;;;;;5.00;3.77;;;;;;;11.86;72.85;95397.53;5014227;28;20472;-86
2023/05/13 04:09:26;;;;;;;4.40;3.90;;;;;;;11.96;72.27;95413.38;5014679;28;20451;-86
2023/05/13 04:11:53;;;;;;;4.33;3.73;;;;;;;11.98;72.85;95416.72;5014214;28;20435;-87
2023/05/13 04:14:21;;;;;;;3.67;3.37;;;;;;;11.99;73.82;95415.75;5014910;28;20455;-86
2023/05/13 04:16:48;;;;;;;3.80;3.50;;;;;;;11.95;73.13;95420.44;4996264;28;20522;-86
2023/05/13 04:19:15;;;;;;;4.00;3.70;;;;;;;11.99;73.51;95421.00;5015071;28;20827;-87
2023/05/13 04:21:41;;;;;;;3.60;3.30;;;;;;;12.04;72.43;95410.94;5013438;28;21295;-85
2023/05/13 04:24:08;;;;;;;3.97;3.63;;;;;;;12.11;73.61;95412.09;5014654;28;20500;-86
2023/05/13 04:26:37;;;;;;;5.57;4.20;;;;;;;12.10;74.80;95416.53;5014066;28;20537;-86
2023/05/13 04:29:04;;;;;;;3.90;3.53;;;;;;;12.09;74.66;95414.03;5014108;28;20431;-87
2023/05/13 04:31:32;;;;;;;4.13;3.23;;;;;;;12.10;73.82;95419.16;5014105;28;20498;-86
2023/05/13 04:33:59;;;;;;;5.20;3.90;;;;;;;12.12;74.17;95429.53;5012666;28;20450;-86
2023/05/13 04:36:26;;;;;;;5.20;4.40;;;;;;;12.09;74.92;95424.53;5014108;28;20953;-87
2023/05/13 04:38:54;;;;;;;4.17;3.60;;;;;;;12.05;75.74;95431.03;5015044;28;20440;-88
2023/05/13 04:41:21;;;;;;;4.20;3.27;;;;;;;12.01;75.16;95440.13;4996951;28;20501;-87
2023/05/13 04:47:11;;;;;;;11.20;3.93;;;;;;;11.97;77.71;95436.06;5013837;28;20514;-91
2023/05/13 04:49:37;;;;;;;4.50;4.10;;;;;;;12.00;75.89;95434.03;5014680;28;20436;-87
2023/05/13 04:52:05;;;;;;;5.07;4.67;;;;;;;12.06;76.09;95430.06;5014290;28;20443;-86
2023/05/13 04:54:34;;;;;;;6.13;3.53;;;;;;;12.14;75.69;95438.16;5014043;28;20846;-87
2023/05/13 05:00:23;;;;;;;4.33;3.80;;;;;;;12.39;86.46;95427.25;4998397;28;20437;-84
2023/05/13 05:02:51;;;;;;;10.50;4.90;;;;;;;12.47;81.31;95425.81;5014393;28;20440;-87
2023/05/13 05:05:18;;;;;;;4.90;3.80;;;;;;;12.58;80.95;95428.38;5013677;28;20902;-87
2023/05/13 05:07:45;;;;;;;4.63;4.10;;;;;;;12.73;82.78;95419.19;5014108;28;21014;-87
2023/05/13 05:10:13;;;;;;;6.43;5.00;;;;;;;12.76;78.40;95421.56;5014368;28;20438;-86
2023/05/13 05:12:41;;;;;;;6.37;4.43;;;;;;;13.08;82.75;95418.81;5013820;28;20878;-86
2023/05/13 05:15:14;;;;;;;4.67;4.17;;;;;;;13.80;80.99;95418.59;5014196;28;20442;-87
2023/05/13 05:21:04;;;;;;;3.90;3.57;;;;;;;15.11;70.54;95425.06;5012627;28;20458;-86
2023/05/13 05:23:31;;;;;;;4.83;3.60;;;;;;;15.56;69.11;95421.63;4993937;28;20433;-86
2023/05/13 05:25:58;;;;;;;8.03;4.10;;;;;;;15.97;68.74;95425.63;5004064;28;21055;-86
2023/05/13 05:28:25;;;;;;;4.10;3.80;;;;;;;16.39;65.21;95440.91;5013907;28;20527;-86
2023/05/13 05:30:52;;;;;;;4.70;4.20;;;;;;;16.85;62.30;95442.47;5013562;28;20471;-86
2023/05/13 05:33:20;;;;;;;3.97;3.57;;;;;;;17.32;61.20;95442.09;5012466;28;20939;-86
2023/05/13 05:35:46;;;;;;;4.30;3.90;;;;;;;17.72;62.63;95433.53;5005429;28;20444;-86
2023/05/13 05:38:15;;;;;;;4.63;4.23;;;;;;;17.94;61.96;95437.44;5014065;28;20432;-85
2023/05/13 05:40:44;;;;;;;4.50;4.10;;;;;;;18.08;56.69;95434.13;5008027;28;20503;-87
2023/05/13 05:43:11;;;;;;;5.77;4.70;;;;;;;18.20;62.29;95431.97;5014262;28;20441;-86
2023/05/13 05:45:38;;;;;;;6.93;4.70;;;;;;;18.27;61.21;95440.97;5016879;28;20492;-89
2023/05/13 05:48:06;;;;;;;15.10;7.37;;;;;;;18.20;57.44;95442.59;5017773;28;20434;-84
2023/05/13 05:50:33;;;;;;;7.13;5.60;;;;;;;17.95;61.00;95433.78;4998835;28;20448;-83
2023/05/13 05:53:00;;;;;;;6.60;5.70;;;;;;;17.82;59.37;95428.91;5016859;28;20947;-86
2023/05/13 05:58:50;;;;;;;8.63;6.70;;;;;;;17.52;62.87;95427.59;5015804;28;20968;-87
2023/05/13 06:01:17;;;;;;;7.60;6.90;;;;;;;17.66;61.49;95436.81;5017115;28;20488;-88
2023/05/13 06:03:44;;;;;;;7.07;6.23;;;;;;;17.82;60.06;95430.72;5017198;28;20440;-88
2023/05/13 06:06:11;;;;;;;8.27;6.00;;;;;;;17.89;60.91;95426.44;5016569;28;20891;-86
2023/05/13 06:08:38;;;;;;;8.30;7.40;;;;;;;17.93;61.05;95433.94;5016121;28;21750;-85
2023/05/13 06:11:06;;;;;;;9.37;6.83;;;;;;;18.00;63.72;95426.16;5018230;28;20459;-87
2023/05/13 06:13:33;;;;;;;12.43;7.60;;;;;;;17.83;60.94;95419.13;5000993;28;20540;-86
2023/05/13 06:16:01;;;;;;;8.83;6.83;;;;;;;18.21;69.44;95420.34;4998965;28;20452;-87
2023/05/13 06:18:28;;;;;;;8.73;7.20;;;;;;;18.79;63.76;95425.59;5017222;28;20445;-86
2023/05/13 06:21:00;;;;;;;7.80;7.00;;;;;;;19.25;59.55;95417.03;5019045;28;20433;-86
2023/05/13 06:23:28;;;;;;;9.03;7.80;;;;;;;19.39;60.11;95435.81;4982754;28;20533;-86
2023/05/13 06:25:56;;;;;;;7.90;7.20;;;;;;;19.29;58.42;95434.31;5017211;28;20472;-87
2023/05/13 06:28:23;;;;;;;13.67;7.93;;;;;;;19.16;57.98;95433.03;5016892;28;20502;-87
2023/05/13 06:30:49;;;;;;;11.80;8.30;;;;;;;19.03;60.13;95432.69;5016494;28;20810;-86
2023/05/13 06:33:20;;;;;;;9.23;8.00;;;;;;;18.63;58.11;95438.06;5016215;28;20440;-86
2023/05/13 06:35:48;;;;;;;9.20;7.10;;;;;;;18.58;60.39;95436.69;4997697;28;20443;-87
2023/05/13 06:38:16;;;;;;;15.40;8.87;;;;;;;18.40;60.25;95448.47;5016167;28;20438;-86
2023/05/13 06:40:43;;;;;;;10.03;8.50;;;;;;;18.20;61.99;95438.13;5016184;28;20440;-86
2023/05/13 06:43:11;;;;;;;8.97;8.07;;;;;;;18.02;62.79;95447.22;4997765;28;20436;-85
2023/05/13 06:45:38;;;;;;;11.60;8.00;;;;;;;18.14;65.61;95438.78;4997625;28;20442;-86
2023/05/13 06:48:05;;;;;;;10.13;8.90;;;;;;;18.29;60.73;95443.47;5015574;28;20968;-86
2023/05/13 06:50:33;;;;;;;9.50;7.70;;;;;;;18.08;63.78;95442.09;5015534;28;20460;-86
2023/05/13 06:53:00;;;;;;;11.03;8.73;;;;;;;18.23;62.55;95437.00;4997660;28;20458;-86
2023/05/13 06:55:27;;;;;;;9.67;7.23;;;;;;;18.78;63.17;95431.88;4996734;28;20439;-86
2023/05/13 06:57:53;;;;;;;9.43;8.53;;;;;;;19.17;58.01;95436.50;5016358;28;20441;-86
2023/05/13 07:00:21;;;;;;;14.17;8.90;;;;;;;19.44;60.84;95430.78;5015734;28;20498;-85
2023/05/13 07:02:47;;;;;;;10.77;8.00;;;;;;;19.57;56.11;95446.25;4997769;28;20873;-86
2023/05/13 07:05:14;;;;;;;9.40;7.37;;;;;;;19.42;57.85;95439.94;5016094;28;20832;-85
2023/05/13 07:07:43;;;;;;;10.13;7.87;;;;;;;19.18;56.35;95438.19;5015634;28;20890;-86
2023/05/13 07:10:10;;;;;;;8.80;7.63;;;;;;;18.62;56.00;95442.53;5015551;28;20460;-85
2023/05/13 07:12:37;;;;;;;8.90;6.57;;;;;;;18.79;57.48;95433.56;5015396;28;20488;-86
2023/05/13 07:15:05;;;;;;;9.50;7.40;;;;;;;19.32;55.64;95436.63;4997559;28;20449;-86
2023/05/13 07:17:32;;;;;;;7.97;6.73;;;;;;;19.82;54.83;95446.16;4948983;28;20456;-87
2023/05/13 07:19:59;;;;;;;6.93;6.20;;;;;;;20.10;55.38;95442.03;5015465;28;20525;-86
2023/05/13 07:22:26;;;;;;;12.43;7.57;;;;;;;20.23;58.25;95434.28;5015279;28;20845;-86
2023/05/13 07:24:54;;;;;;;11.20;6.70;;;;;;;20.59;51.95;95447.09;5015235;28;20831;-85
2023/05/13 07:27:21;;;;;;;7.03;6.33;;;;;;;20.60;50.53;95446.91;5014769;28;20570;-85
2023/05/13 07:29:48;;;;;;;8.27;7.10;;;;;;;20.73;51.81;95448.97;4997011;28;20483;-86
2023/05/13 07:32:15;;;;;;;7.73;6.40;;;;;;;20.52;51.57;95440.78;5015221;28;20446;-86
2023/05/13 07:34:42;;;;;;;7.50;6.33;;;;;;;20.28;49.80;95447.91;5015321;28;20451;-86
2023/05/13 07:37:08;;;;;;;8.07;6.30;;;;;;;19.63;49.29;95450.88;5015047;28;20432;-86
2023/05/13 07:39:35;;;;;;;6.17;5.57;;;;;;;19.25;53.13;95443.63;5014891;28;20440;-86
2023/05/13 07:42:04;;;;;;;6.70;6.00;;;;;;;19.49;54.04;95435.59;4996528;28;20458;-86
2023/05/13 07:44:31;;;;;;;17.17;6.43;;;;;;;19.53;49.99;95434.28;5014970;28;20453;-88
2023/05/13 07:46:57;;;;;;;10.87;6.40;;;;;;;19.61;52.30;95439.56;5014873;28;20836;-86
2023/05/13 07:49:24;;;;;;;7.87;6.10;;;;;;;19.78;51.92;95441.19;5014539;28;20439;-86
2023/05/13 07:51:51;;;;;;;6.07;5.57;;;;;;;19.94;48.35;95444.75;5015846;28;20559;-86
2023/05/13 07:54:18;;;;;;;8.40;6.00;;;;;;;19.79;47.99;95437.50;5014370;28;20478;-86
2023/05/13 07:56:46;;;;;;;11.83;5.97;;;;;;;19.90;48.83;95446.94;5014466;28;20903;-86
2023/05/13 07:59:14;;;;;;;7.27;6.47;;;;;;;19.93;48.65;95445.75;5014401;28;20910;-86
2023/05/13 08:01:42;;;;;;;6.73;6.03;;;;;;;19.72;49.64;95438.38;5015166;28;20477;-86
2023/05/13 08:04:09;;;;;;;8.33;6.70;;;;;;;19.54;50.37;95440.44;5014809;28;20512;-86
2023/05/13 08:06:36;;;;;;;6.50;5.43;;;;;;;19.65;50.91;95440.88;5014055;28;20479;-86
2023/05/13 08:09:02;;;;;;;5.70;4.97;;;;;;;19.46;50.15;95443.94;5013636;28;20438;-86
2023/05/13 08:11:29;;;;;;;6.47;5.73;;;;;;;19.04;51.50;95444.16;5014114;28;20862;-86
2023/05/13 08:13:57;;;;;;;9.50;6.17;;;;;;;19.36;50.72;95444.09;5014349;28;20446;-87
2023/05/13 08:16:25;;;;;;;8.40;5.73;;;;;;;19.53;51.08;95452.91;4996382;28;20443;-86
2023/05/13 08:18:52;;;;;;;8.50;6.10;;;;;;;19.57;50.94;95446.25;5014440;28;20447;-85
2023/05/13 08:21:19;;;;;;;13.70;5.83;;;;;;;19.70;51.65;95432.41;5014433;28;20461;-87
2023/05/13 08:23:46;;;;;;;8.03;6.33;;;;;;;20.03;51.16;95433.91;5013380;28;20447;-85
2023/05/13 08:26:13;;;;;;;10.10;6.90;;;;;;;20.30;49.94;95431.75;5012335;28;20801;-85
2023/05/13 08:28:40;;;;;;;7.03;5.43;;;;;;;20.48;49.04;95426.16;4978156;28;20935;-85
2023/05/13 08:31:07;;;;;;;9.97;6.00;;;;;;;20.74;50.32;95426.59;5012780;28;20449;-85
2023/05/13 08:33:35;;;;;;;6.90;5.50;;;;;;;21.02;49.13;95421.53;5012535;28;20444;-85
2023/05/13 08:36:02;;;;;;;6.90;6.20;;;;;;;21.22;47.31;95424.50;5012793;28;20456;-85
2023/05/13 08:38:28;;;;;;;10.13;7.13;;;;;;;21.25;47.54;95417.00;5012778;28;20985;-86
2023/05/13 08:40:56;;;;;;;11.50;6.50;;;;;;;21.06;48.56;95408.66;5012889;28;20438;-84
2023/05/13 08:43:24;;;;;;;10.20;8.03;;;;;;;20.88;49.10;95412.50;4993944;28;20447;-84
2023/05/13 08:45:52;;;;;;;10.13;6.80;;;;;;;20.56;48.79;95407.44;5012511;28;20654;-84
2023/05/13 08:48:20;;;;;;;14.03;5.90;;;;;;;20.60;52.27;95401.56;5012541;28;20513;-85
2023/05/13 08:50:49;;;;;;;12.03;6.23;;;;;;;20.57;50.53;95401.94;4993891;28;20870;-84
2023/05/13 08:53:17;;;;;;;8.20;5.60;;;;;;;20.55;52.18;95403.13;5012022;28;20963;-84
2023/05/13 08:55:44;;;;;;;7.03;5.33;;;;;;;20.47;51.31;95405.81;5012657;28;20535;-86
2023/05/13 08:58:11;;;;;;;7.90;5.87;;;;;;;20.53;51.46;95402.44;5012338;28;20535;-85
2023/05/13 09:00:39;;;;;;;9.17;6.23;;;;;;;20.58;50.31;95402.75;5012465;28;20566;-86
2023/05/13 09:03:06;;;;;;;16.07;6.60;;;;;;;20.51;50.37;95404.44;4993527;28;20441;-86
2023/05/13 09:05:33;;;;;;;7.10;6.50;;;;;;;20.61;53.52;95389.88;5012374;28;20551;-86
2023/05/13 09:08:07;;;;;;;12.13;5.60;;;;;;;20.56;51.88;95392.28;5012612;28;20480;-86
2023/05/13 09:10:34;;;;;;;10.67;6.37;;;;;;;20.30;51.42;95387.25;5012381;28;20444;-85
2023/05/13 09:13:01;;;;;;;15.33;6.60;;;;;;;20.34;51.81;95387.75;5011950;28;20451;-86
2023/05/13 09:15:28;;;;;;;8.20;6.47;;;;;;;20.24;51.96;95389.78;5012339;28;20535;-85
2023/05/13 09:17:58;;;;;;;13.57;6.50;;;;;;;20.09;53.48;95387.91;5011973;28;20473;-85
2023/05/13 09:20:25;;;;;;;10.00;6.50;;;;;;;19.99;53.50;95378.47;5015232;28;20449;-85
2023/05/13 09:22:54;;;;;;;7.10;6.40;;;;;;;20.09;53.01;95379.91;5015871;28;20444;-87
2023/05/13 09:25:24;;;;;;;8.10;6.87;;;;;;;20.19;52.49;95385.00;5016006;28;20857;-86
2023/05/13 09:27:52;;;;;;;8.73;7.10;;;;;;;20.33;54.19;95376.25;5016056;28;20557;-87
2023/05/13 09:30:20;;;;;;;11.23;7.00;;;;;;;20.42;53.13;95382.38;5016011;28;20447;-87
2023/05/13 09:33:05;;;;;;;7.97;7.23;;;;;;;20.46;53.42;95386.34;4996980;28;20879;-87
2023/05/13 09:35:32;;;;;;;9.13;6.77;;;;;;;20.30;54.16;95384.59;5015576;28;20844;-86
2023/05/13 09:37:59;;;;;;;7.43;6.63;;;;;;;20.04;53.24;95386.78;5015642;28;20947;-87
2023/05/13 09:40:27;;;;;;;7.83;6.90;;;;;;;20.00;54.44;95378.31;5015964;28;20447;-88
2023/05/13 09:42:58;;;;;;;17.20;7.00;;;;;;;19.52;55.03;95370.53;5015330;28;20482;-87
2023/05/13 09:45:26;;;;;;;10.73;7.20;;;;;;;19.64;56.68;95370.00;5015922;28;20528;-87
2023/05/13 09:47:55;;;;;;;8.03;6.47;;;;;;;19.25;57.13;95361.97;5015417;28;20482;-87
2023/05/13 09:50:22;;;;;;;9.00;6.50;;;;;;;18.83;58.69;95360.44;5015631;28;20454;-87
2023/05/13 09:52:49;;;;;;;8.30;6.37;;;;;;;19.03;57.82;95347.56;5015627;28;20453;-85
2023/05/13 09:55:16;;;;;;;8.50;5.57;;;;;;;19.25;59.16;95347.84;5015627;28;20530;-87
2023/05/13 09:57:46;;;;;;;8.53;6.77;;;;;;;19.35;58.28;95354.63;5015455;28;20527;-86
2023/05/13 10:00:13;;;;;;;6.57;6.00;;;;;;;19.38;58.94;95348.16;5016075;28;20958;-87
2023/05/13 10:02:41;;;;;;;11.10;6.97;;;;;;;19.33;59.04;95340.66;5017155;28;20482;-89
2023/05/13 10:05:09;;;;;;;7.13;5.83;;;;;;;19.39;58.46;95355.13;5016396;28;20784;-88
2023/05/13 10:07:38;;;;;;;8.20;6.50;;;;;;;19.91;62.26;95349.22;5017233;28;20559;-85
2023/05/13 10:10:07;;;;;;;8.20;6.53;;;;;;;20.27;59.27;95355.63;5016279;28;20493;-84
2023/05/13 10:12:38;;;;;;;10.50;4.83;;;;;;;20.60;57.09;95360.75;5016184;28;20846;-84
2023/05/13 10:15:07;;;;;;;8.77;5.00;;;;;;;20.83;56.62;95353.53;5016118;28;21224;-85
2023/05/13 10:17:35;;;;;;;8.30;4.87;;;;;;;21.14;55.87;95347.19;5016231;28;20933;-84
2023/05/13 10:20:21;;;;;;;7.50;5.60;;;;;;;21.37;55.91;95353.28;5017086;28;20445;-84
2023/05/13 10:22:50;;;;;;;6.78;5.88;;;;;;;21.58;54.67;95357.88;4997813;28;20486;-89
2023/05/13 10:25:17;;;;;;;12.00;7.30;;;;;;;21.22;54.06;95355.13;5016239;28;20266;-85
2023/05/13 10:27:45;;;;;;;7.43;6.53;;;;;;;21.24;53.83;95347.78;5015535;28;20496;-85
2023/05/13 10:30:15;;;;;;;12.47;6.80;;;;;;;20.96;52.28;95345.72;4995946;28;20459;-86
2023/05/13 10:32:41;;;;;;;15.33;6.27;;;;;;;20.83;54.32;95342.03;5015234;28;20444;-85
2023/05/13 10:35:12;;;;;;;6.50;5.87;;;;;;;20.77;54.35;95340.88;5015095;28;20452;-83
2023/05/13 10:38:00;;;;;;;9.37;6.40;;;;;;;20.70;55.24;95340.78;5015281;28;20814;-85
2023/05/13 10:40:59;;;;;;;12.13;6.47;;;;;;;20.56;55.29;95346.94;5014791;28;20448;-82
2023/05/13 10:43:28;;;;;;;8.13;7.20;;;;;;;20.27;56.35;95350.31;5015860;28;20446;-86
2023/05/13 10:46:00;;;;;;;36.03;17.30;;;;;;;20.22;60.97;95349.16;5015662;28;20445;-85
2023/05/13 10:48:37;;;;;;;42.57;25.93;;;;;;;20.25;62.80;95341.66;4981545;28;20979;-86
2023/05/13 10:51:06;;;;;;;20.63;10.27;;;;;;;20.49;58.35;95359.31;5016525;28;21011;-88
2023/05/13 10:53:37;;;;;;;7.13;6.03;;;;;;;20.29;54.44;95353.63;5015988;28;20942;-85
2023/05/13 10:56:06;;;;;;;13.87;7.03;;;;;;;19.66;56.44;95354.69;5015881;28;20530;-85
2023/05/13 10:58:37;;;;;;;7.20;6.47;;;;;;;19.69;56.32;95350.84;5016595;28;20456;-87
2023/05/13 11:01:19;;;;;;;7.03;6.33;;;;;;;19.60;59.29;95352.72;5015776;28;20510;-86
2023/05/13 11:03:53;;;;;;;8.97;6.13;;;;;;;19.57;57.59;95357.56;5014857;28;20462;-85
2023/05/13 11:06:21;;;;;;;10.93;6.67;;;;;;;19.63;57.99;95367.50;5015484;28;20531;-85
2023/05/13 11:11:32;;;;;;;14.27;6.30;;;;;;;19.93;60.25;95360.50;4974366;28;20446;-84
2023/05/13 11:14:15;;;;;;;11.17;6.53;;;;;;;19.98;56.76;95348.34;4973922;28;20528;-84
2023/05/13 11:16:48;;;;;;;10.63;6.90;;;;;;;20.07;58.04;95357.09;4973689;28;21013;-83
2023/05/13 11:19:23;;;;;;;15.60;6.10;;;;;;;20.37;60.15;95350.88;4972265;28;20514;-87
2023/05/13 11:21:52;;;;;;;6.60;6.00;;;;;;;20.59;59.21;95343.09;4929199;28;20566;-87
2023/05/13 11:24:20;;;;;;;14.00;6.63;;;;;;;20.68;56.02;95337.47;4954712;29;20489;-86
2023/05/13 11:26:49;;;;;;;8.93;6.90;;;;;;;20.68;54.86;95332.16;4961799;28;20536;-88
2023/05/13 11:29:28;;;;;;;6.00;5.50;;;;;;;20.71;55.91;95336.28;4974263;28;20540;-87
2023/05/13 11:31:57;;;;;;;7.83;6.80;;;;;;;20.63;56.29;95331.88;4974269;28;20441;-87
2023/05/13 11:34:25;;;;;;;6.80;6.00;;;;;;;20.58;55.89;95331.59;4974135;28;20520;-86
2023/05/13 11:37:05;;;;;;;8.53;6.40;;;;;;;20.52;55.73;95329.63;4974666;28;20507;-87
2023/05/13 11:39:33;;;;;;;9.17;6.60;;;;;;;20.34;55.18;95308.59;4974002;28;20430;-87
2023/05/13 11:42:01;;;;;;;6.23;5.53;;;;;;;20.47;56.77;95310.66;4987442;28;20450;-87
2023/05/13 11:44:28;;;;;;;7.80;6.37;;;;;;;20.50;56.45;95306.81;5014908;28;20971;-88
2023/05/13 11:46:59;;;;;;;7.10;6.37;;;;;;;20.52;55.85;95315.47;5015386;28;20817;-87
2023/05/13 11:49:37;;;;;;;8.00;6.20;;;;;;;20.56;55.55;95311.44;5014357;28;20487;-87
2023/05/13 11:52:06;;;;;;;10.63;5.60;;;;;;;20.58;57.14;95309.44;5012971;28;20444;-87